[問題] 換車(二手)詢問

看板 Bicycle
作者
時間
留言 115則留言,23人參與討論
推噓 16 ( 18推 2噓 95→ )
為了明年的八日環島,在八月中有買了一台2022 Escape 3,平路練習時,在沒風的情況下均速大概23-25km/hr,但騎三個小時以上會覺得車還蠻重的。想請問版友的經驗會建議換車(二手)嗎?(目前有考慮過 defy 3,因為舊有的後貨架還可以沿用) ----- Sent from JPTT on my Asus ASUS_I006D. --
※ 發信站: 批踢踢實業坊(ptt.cc), 來自: 101.9.49.193 (臺灣) ※ 文章網址: https://www.ptt.cc/bbs/bicycle/M.1669028458.A.1E1.html
1FTESA: 沒預算就上最頂 不要問我為什麼,後貨架丟掉 11/21 19:04
2FRCSTD03: 如果你的車齡=環島準備期長的話,那八日算硬的喔 11/21 19:14
9到11天會比較合理嗎
3FRCSTD03: 雖然你平地騎乘的重拖感應該換胎可以改善很多 11/21 19:15
目前的胎是38C的 ※ 編輯: qazsew8426 (101.9.49.193 臺灣), 11/21/2022 19:16:47 ※ 編輯: qazsew8426 (101.9.49.193 臺灣), 11/21/2022 19:19:39
4FRCSTD03: 10天左右差不多吧,但還是要看你選擇的路線決定分子 11/21 19:20
5FRCSTD03: 同樣分母是8,環島一號線跟四極點痛苦程度完全不同 11/21 19:21
我們是二月底到三月初環島,路線的話主要照環島一號線騎,應該不會特別繞其他地方
6FRCSTD03: 至於要不要換車取決於你還有多少時間可以購車跟試騎 11/21 19:24
7FRCSTD03: 至於後貨架......一樓是兇了點但我知道他想說什麼 11/21 19:25
我也了解1F版友想說的意思XD 當初是先有後貨架,參考了馬鞍袋之後不常用以及蟲蛹包可能車會比較晃等建議,決定把後背包綁在貨架上帶行李,二手車預算目前10 k...
8FRCSTD03: 行程那麼硬要極致輕量就得把行李壓到蟲蛹包能裝的量 11/21 19:26
9FRCSTD03: 然後沒預算真的很難推薦東西XD 11/21 19:33
10Fjason90814: 環島E3換個28C胎就可以了 11/21 19:38
了解,感謝分享!
11Fjason90814: 行李至少都5kg以上,車重差異變很細微,E3騎車姿勢 11/21 19:40
12Fjason90814: 也比較挺,當初騎公路車趴三天就痠死了 11/21 19:40
※ 編輯: qazsew8426 (101.9.49.193 臺灣), 11/21/2022 19:41:17
13FRCSTD03: 多人的話要參考團隊中較弱的人的能力規劃行程 11/21 19:47
※ 編輯: qazsew8426 (101.9.49.193 臺灣), 11/21/2022 19:50:51
14FRCSTD03: 明年二月要環島現在還不知道要不要換的車在哪裡 11/21 19:53
15FRCSTD03: 這樣還是建議升級現有的吧 11/21 19:54
了解,我再照各位版友建議的,從換胎跟蟲蛹包去改善,謝謝分享! ※ 編輯: qazsew8426 (101.9.49.193 臺灣), 11/21/2022 19:54:47
16Ffrice: 輪胎先換28c 看看滿意不滿意 輪胎永遠是cp值最高 11/21 20:10
17Ffrice: 的改裝方式 11/21 20:10
好的,謝謝分享!
18Fsnowiceemc: 環島很少會一直騎三小時都不停的,中間會有景點,有 11/21 20:10
抱歉前面沒說清楚,大概20公里會稍微休息一下
19Fsnowiceemc: 地方可以休息。一天100公里的話,建議是早上至少60 11/21 20:10
20Fsnowiceemc: 公里,中午吃飯休息躲太陽一點兩點出發,下午騎40公 11/21 20:10
原來!太天真想說就一直騎,沒考慮到正午太陽很大的問題XD
21Fsnowiceemc: 里。我的行李整個是六公斤包含馬鞍袋,為了測試我這 11/21 20:10
22Fsnowiceemc: 樣能不能爬坡,我在馬鞍袋裝了六公斤的水騎了兩次北 11/21 20:10
23Fsnowiceemc: 宜到海倫咖啡確認爬坡沒問題才出發。再來建議裝個牛 11/21 20:10
24Fsnowiceemc: 角握把可以變換手部姿勢使用不同肌肉,不然姿勢一直 11/21 20:10
的確因為平把,感覺肩膀跟背會有點緊緊的,謝謝建議!
25Fsnowiceemc: 固定,我是80公里開始肩膀會酸痛屁股也會痛 11/21 20:10
※ 編輯: qazsew8426 (101.9.49.193 臺灣), 11/21/2022 20:11:24 ※ 編輯: qazsew8426 (101.9.49.193 臺灣), 11/21/2022 20:12:42 ※ 編輯: qazsew8426 (101.9.49.193 臺灣), 11/21/2022 20:16:14 ※ 編輯: qazsew8426 (101.9.49.193 臺灣), 11/21/2022 20:18:27 ※ 編輯: qazsew8426 (101.9.49.193 臺灣), 11/21/2022 20:37:56
26FRCSTD03: 建議不要極致輕量硬嗑八天行程啦,畢竟是團體行動 11/21 21:23
會和同伴溝通改9-10天的時間環完,謝謝提醒!
27FRCSTD03: 但如果要的話,版上搜尋環島有我的紀錄,可以看看 11/21 21:28
28FRCSTD03: 要多日的話單日平均里程估到單日最高里程的七成五 11/21 21:49
29FRCSTD03: 就很極限了 11/21 21:49
30Faofm: 換一級車啊!但你一定沒錢 11/21 22:33
真的沒有XD
31FDuc916: 一級車要比載重和過地形能力嗎 11/21 23:26
32FFF16: 一級車要比載重跟爛路會輸escape吧 11/22 00:09
33FFF16: 你去迪卡儂買個馬鞍袋,搭配綁貨物的彈力繩,要固定 11/22 00:12
34FFF16: 一般量的行李就夠用了。拖的問題無解,你把貨物加上 11/22 00:12
35FFF16: 去後,肯定會覺得更拖,大概增加5公斤左右,因為輪 11/22 00:12
36FFF16: 胎會吃得更深,肯定會覺得更拖。 11/22 00:12
37FFF16: 輪胎換細的可能會犧牲穩定性以及更容易爆胎,我建議 11/22 00:20
38FFF16: 你找找看有沒有同樣是38c但是胎壓更高的。原廠附的 11/22 00:20
39FFF16: 防刺胎最高胎壓只有75,其實很不錯,我騎了大約5000 11/22 00:20
40FFF16: 公里都沒爆胎,而且我常常輾過碎石路、泥土路都沒事 11/22 00:20
41FFF16: 。最後是騎過剛鋪好還沒涼的熱柏油路,輪胎才掛掉, 11/22 00:20
42FFF16: 而且即使是那樣,我看一顆玻璃直接穿到可以看到內胎 11/22 00:20
43FFF16: ,內胎也沒爆讓我可以騎回家再去傷腦筋換輪胎的問題 11/22 00:20
44FFF16: 。後來我換了胎壓最高85的防刺胎,感覺上騎起來會比 11/22 00:20
了解,會回去原車行問看看有沒有符合的外胎,感謝分享!
45FFF16: 原廠的更輕。 11/22 00:20
46FFF16: 然後,如果你的行李真的很重,重到超過20公斤的話, 11/22 00:25
行李試裝過,應該不會到10kg
47FFF16: 去裝v夾的前貨架,然後前輪再加掛兩個馬鞍袋,把重 11/22 00:25
48FFF16: 量平均分散在兩輪上,我試過,即使多了前貨架以及兩 11/22 00:25
49FFF16: 個馬鞍袋的重量,路感還是會比重量集中在後輪來得輕 11/22 00:25
50FFF16: 。 11/22 00:25
51FFF16: 還有,你說騎3個小時才會覺得拖,這可能不是車的問 11/22 00:42
52FFF16: 題,而是因為你的血糖用完了,試著在騎的途中補充一 11/22 00:42
53FFF16: 點糖份會有幫助。自行車比賽的時候選手會每隔10到30 11/22 00:42
54FFF16: 分鐘吃一包果糖糖漿(吸膠)。在環島那種輕鬆騎的狀 11/22 00:42
55FFF16: 況下,大概把一個水壺換成運動飲料,騎個一陣子喝個 11/22 00:42
56FFF16: 幾口就很夠了。 11/22 00:42
原來!因為我休息時也只有喝開水而已,謝謝提醒
57Ften9di9: 換fastroad 11/22 06:15
目前的話傾向透過換胎等方式去升級原本的車子,謝謝分享!
58Fsnickle: 推FF16 原來是血糖用完啊 我一直以為自己遇到逆風.. 11/22 08:09
59Fchia0303: 弄台電輔車不知道如何 感覺爽爽玩環島 11/22 08:38
60Frollmonkey: 預算一萬的話就不用換車了,差異不會多大 11/22 10:24
61Frollmonkey: 升級現有車子比較划算,握把坐墊外胎煞車皮,甚至 11/22 10:25
62Frollmonkey: 拿去買身上裝備都比較好 11/22 10:25
了解,謝謝分享!
63Fwilliamluo: 先把輪胎換28C 我騎Escape RX3環島過 行李重量5KG 11/22 11:13
64Fwilliamluo: 建議你把行李減重就可以了不用換車 11/22 11:13
了解,會再看哪些非必要的東西能拿掉減量,謝謝分享!
65FSCL13: 換28C先 然後每天洗衣 這樣行李可以少 11/22 11:24
目前是打算帶白天的車衣褲,跟一套晚上睡換的便服跟外套,請問這樣的話會太多嗎
67FAnsonLan: 反正環島要載行李 車子輕那一點也沒差多少 11/22 11:46
68FAnsonLan: 倒是E3 原廠輪胎換掉差很多 也可以減重很不少 我從 11/22 11:46
69FAnsonLan: 原廠S-X3 換成GP4000 瞬間皂甘那飛 供參考 11/22 11:46
了解,感謝分享!
70Fangus449: 環島不用騎快,慢慢騎慢慢看風景,西濱哪一段例外, 11/22 14:03
71Fangus449: 一般規劃是一天100k,車重影響不大,最好有後架行 11/22 14:04
72Fangus449: 李包之類的,因為要載行李,背包不要背太重,倒是好 11/22 14:04
73Fangus449: 拆輪換胎的車是首選,而且疲勞是會累積的 11/22 14:04
目前有買這種網袋把背包固定在後貨架上,還蠻穩的http://i.imgur.com/vPrjq9o.jpg
※ 編輯: qazsew8426 (101.9.49.193 臺灣), 11/22/2022 17:16:23 ※ 編輯: qazsew8426 (101.9.49.193 臺灣), 11/22/2022 17:19:38 ※ 編輯: qazsew8426 (101.9.49.193 臺灣), 11/22/2022 17:22:34 ※ 編輯: qazsew8426 (101.9.49.193 臺灣), 11/22/2022 17:23:03 ※ 編輯: qazsew8426 (101.9.49.193 臺灣), 11/22/2022 17:23:40 ※ 編輯: qazsew8426 (101.9.49.193 臺灣), 11/22/2022 17:26:54
74Fbochengchen: 千萬不要八日環島,除非是老鳥 11/22 17:30
昨天有算過8天對我們來說真的太硬,會再跟同伴討論改9-10天環完,謝謝分享! ※ 編輯: qazsew8426 (101.9.49.193 臺灣), 11/22/2022 17:31:23 ※ 編輯: qazsew8426 (101.9.49.193 臺灣), 11/22/2022 17:34:04 ※ 編輯: qazsew8426 (101.9.49.193 臺灣), 11/22/2022 17:37:40 ※ 編輯: qazsew8426 (101.9.49.193 臺灣), 11/22/2022 17:38:19 ※ 編輯: qazsew8426 (101.9.49.193 臺灣), 11/22/2022 17:41:47 ※ 編輯: qazsew8426 (101.9.49.193 臺灣), 11/22/2022 17:43:35
75FNiubert: 有簡單練車的話,七天大環島差不多。就是逗留時間 11/23 08:08
目前一週大概會練1-2次短距離的(來回40km),計劃慢慢加上去
76FNiubert: 變很少。行李可以寄小七,這樣就不用大行李包。 11/23 08:08
77FNiubert: 可以叫家人你寄行李,你如果慢慢騎十天的話,出發 11/23 08:12
78FNiubert: 前三天自己寄一次,然後中間家人幫你寄一次,這樣 11/23 08:12
79FNiubert: 就解決了。十天郵資等於一個馬鞍包而已。 11/23 08:12
80Fsnowiceemc: 時間太短的話就變的是一直騎車沒辦法逛景點,看你們 11/23 09:04
81Fsnowiceemc: 環島的目的是什麼 11/23 09:04
我們現在的目標是能完成環島就好,逛景點不強求XD
82Fsiujt50602: 推環島 今年暑假也是e3環島10天 11/23 12:38
83Fsiujt50602: 真的會一直走走停停也不會騎很快 11/23 12:38
那就放心了,謝謝分享~
84Fsiujt50602: 換車問題應該可以省下來 11/23 12:38
85Fsnowiceemc: 對了,環島超過7天一定會遇到假日,假日住宿不好訂 11/23 12:50
86Fsnowiceemc: 要提早訂,但是提早訂又有可能會騎不到(有意外的話) 11/23 12:50
87Fsnowiceemc: 這些也要先考量好住宿,訂好了那天就一定要騎到為佳 11/23 12:51
謝謝提醒!
88Fsnowiceemc: 時程盡量安排假日住的地方是比較沒有太多人潮會去的 11/23 12:52
89Ftonny0620: 預算10k的車應該跟excape不會差太多,真的要升級就去 11/23 18:53
90Ftonny0620: 租吧 11/23 18:53
了解,目前會以換胎跟行李減量去改善
91Ftonny0620: 我之前環島有用馬鞍包,但超後悔,雖然增加容量了, 11/23 19:15
92Ftonny0620: 但也多帶了一堆用不到的東西,增加了太多重量.. 11/23 19:15
93FRCSTD03: 會建議留些空間給想帶著吃的小東西或紀念品 11/23 19:32
94FRCSTD03: 而且如果你的同伴們如果一開始沒發現這時程有問題 11/23 19:32
95FRCSTD03: 那你八成不是最菜的那個,路上可能得互相cover行李 11/23 19:33
96FRCSTD03: 時程推算上要記得確認通過的路段繁忙程度 11/23 19:36
97FRCSTD03: 如果你的25Km/h 是在河濱算出來的話 11/23 19:36
98FRCSTD03: 在台北市中心會被扣到五成,西南沿海鄉鎮大概兩成 11/23 19:37
99FRCSTD03: 所以除非有住宿或用餐需求不然盡量避免直穿鬧區 11/23 19:39
100FRCSTD03: 然後要看緊你的路痴隊友,不然會找人找到翻臉 11/23 19:45
了解,謝謝提醒XD
101FRCSTD03: 環島一號線幾乎貼齊南北主要交通幹道跟鐵路,好處是 11/23 19:58
102FRCSTD03: 不用太擔心出狀況求援無門,壞處就是會一直穿市區 11/23 19:59
103FRCSTD03: 這點你們應該會在台南高雄兩地有深刻的感受 11/23 20:00
104FRCSTD03: 所以要記得依自己的準備程度跟行程做路線微調 11/23 20:02
105FRCSTD03: 如果對自己準備有信心的話大可以沿濱海線三天到台南 11/23 20:12
上週我們也有討論到三天到台南,但目前以我們的體能覺得難度偏高,可能三天到嘉義市區比較理想
106FRCSTD03: 把時間跟精力留給南海岸跟東海岸 11/23 20:18
107FRuei0909: 推一個很讚的東西叫瑪吉斯嗨肉 11/24 01:36
謝謝推薦,會去比較看看,剛一開始還誤以為是什麼有名小吃XD ※ 編輯: qazsew8426 (101.9.49.193 臺灣), 11/24/2022 18:19:09 ※ 編輯: qazsew8426 (101.9.49.193 臺灣), 11/24/2022 18:21:17 ※ 編輯: qazsew8426 (101.9.49.193 臺灣), 11/24/2022 18:24:16 ※ 編輯: qazsew8426 (101.9.49.193 臺灣), 11/24/2022 18:45:24 ※ 編輯: qazsew8426 (101.9.49.193 臺灣), 11/24/2022 18:51:42 ※ 編輯: qazsew8426 (101.9.49.193 臺灣), 11/24/2022 18:55:50 ※ 編輯: qazsew8426 (101.9.49.193 臺灣), 11/24/2022 19:01:35 ※ 編輯: qazsew8426 (101.9.49.193 臺灣), 11/24/2022 19:06:23
108Fsnowiceemc: 第三天到嘉義可以參考我前面不遠的14天環島,路程一 11/24 23:29
109Fsnowiceemc: 天約100公里,第五天到楓港,第六天楓港走南迴到台 11/24 23:29
110Fsnowiceemc: 東,第十天從宜蘭走北宜回到台北 11/24 23:29
111Fcloud0121: 我之前騎escape RX3 九天環島 後來一次是TCR1 八天 11/25 13:41
112Fcloud0121: 我會覺得車還好欸 大家都把體能練好比較實際 11/25 13:42
113Fcloud0121: 起碼一天100Km腿不會酸 那問題就不大 11/25 13:42
114Fcloud0121: 但我兩次環島都是小圈 1000Km內的 給你參考 11/25 13:43
115Ftoro077: 騎這台呀,哇 11/26 01:17

bicycle 看板熱門文章

13
54
23
82

最新文章

0
4
2
4